Aeroporto :
LOGIN :

Iscrizione | Disclaimer

   EN    FR    IT 

 










Sommario :    VFR   VFR Marginale   IFR   IFR Intensivo   IFR Molto Intensivo
Visibilità : 
Base nubi : 
>= 8 km
>= 3000ft
5 / 8 km
1000 / 3000 ft
1500m / 5 km
500 / 1000 ft
800 / 1500m
200 / 500 ft
< 800m
< 200 ft
Simboli :   Temporali  Nebbia  Neve Forte  Precipitazioni Forti  Vento > 20 kt
SIGMETs :   Varie  Temporali  Ghiacco  Turbolenza  Onda orograficha  Ceneri Vulcaniche






- Altitudine del aeroporto : 325 ft
- Codice IATA : BES


LFRB - Brest

ULTIMO METAR :
  • 190500Z AUTO 23006KT 9999 FEW017 SCT025 BKN042 08/06 Q1027 TEMPO 4000 -RA OVC005

METARs OBSOLETI :
  • 190430Z AUTO 24004KT 9999 BKN023 BKN029 BKN044 07/06 Q1026 TEMPO 4000 -RA OVC005
  • 190400Z AUTO 27004KT 240V300 9999 SCT021 BKN034 OVC047 07/06 Q1026 BECMG BKN014
  • 190330Z AUTO 28004KT 9999 SCT018 BKN024 BKN031 07/06 Q1026 BECMG BKN014
  • 190300Z AUTO 28004KT 9999 FEW019 SCT027 BKN034 08/06 Q1027 BECMG BKN014
  • 190230Z AUTO 28006KT 9999 SCT040 BKN048 08/06 Q1027 BECMG BKN014

TAF AMD TAF LFRB
Valido dal 19 a 01 ore il 20 a 06 ore UTC


190153Z 1901/2006 27012KT 9999 BKN020
TEMPO 1901/1903 4000 SHRA SCT010TCU BKN012
BECMG 1903/1906 BKN014
TEMPO 1906/1912 4000 -RA OVC005
BECMG 1912/1915 23015G25KT
ATIS : +33 2 98 32 02 71



MetMap, La meteo Aeronautica in un colpo d'occhio ! - Copyright ORBIFLY Dicembre 2007 - Disclaimer

ORBIFLY MET'MAP TEAM :

Programmazione e sviluppo : Alexandra Zaïnal
Concezione : Baudouin d'Aumeries
Aiuto per la programmazione : Marc-Olivier Méhu
Supporto tecnico e logistico : Manuel Goepfert
Aiuto per la traduzione : Arnaldo La Scala

Contatto : metmap@orbifly.com




FONTI E CREDITI :

   NOAA